Terminal Aerodrome Forecast
Issued by NWS Goodland, KS

Home | Current Version | Previous Version | Text Only | Print | Product List | Glossary On
Versions: 1 2 3 4 5 6 7 8 9 10 11 12 13 14 15
000
FTUS43 KGLD 070520
TAFGLD
TAF
KGLD 070520Z 0706/0806 27009KT P6SM SKC
     FM071400 31008KT P6SM SKC
     FM072300 22006KT P6SM FEW200=

USA.gov is the U.S. government's official web portal to all federal, state and local government web resources and services.